Time,TemperatureF,DewpointF,PressureIn,WindDirection,WindDirectionDegrees,WindSpeedMPH,WindSpeedGustMPH,Humidity,HourlyPrecipIn,Conditions,Clouds,dailyrainin,SolarRadiationWatts/m^2,SoftwareType,DateUTC
2013-07-10 00:01:00,66.5,64.0,30.07,NNE,13,3.0,9.0,92,0.00,,,0.00,0,HR-IXPWINDi_r2_v1.2.,2013-07-10 04:01:00,
2013-07-10 00:06:00,66.4,63.9,30.08,NE,43,7.0,8.0,92,0.00,,,0.00,0,HR-IXPWINDi_r2_v1.2.,2013-07-10 04:06:00,
2013-07-10 00:11:00,66.5,64.0,30.08,ENE,61,3.0,8.0,92,0.00,,,0.00,0,HR-IXPWINDi_r2_v1.2.,2013-07-10 04:11:00,
2013-07-10 00:16:00,66.4,63.9,30.07,ENE,60,3.0,7.0,92,0.00,,,0.00,0,HR-IXPWINDi_r2_v1.2.,2013-07-10 04:16:00,
2013-07-10 00:21:00,66.5,64.0,30.08,NNE,27,1.0,7.0,92,0.00,,,0.00,0,HR-IXPWINDi_r2_v1.2.,2013-07-10 04:21:00,
2013-07-10 00:26:00,66.5,64.0,30.07,ENE,59,1.0,5.0,92,0.00,,,0.00,0,HR-IXPWINDi_r2_v1.2.,2013-07-10 04:26:00,
2013-07-10 00:32:00,66.6,64.1,30.08,NE,43,2.0,5.0,92,0.00,,,0.00,0,HR-IXPWINDi_r2_v1.2.,2013-07-10 04:32:00,
2013-07-10 00:37:00,66.6,64.1,30.07,East,80,1.0,6.0,92,0.00,,,0.00,0,HR-IXPWINDi_r2_v1.2.,2013-07-10 04:37:00,
2013-07-10 00:42:00,66.5,64.0,30.07,NE,53,4.0,6.0,92,0.00,,,0.00,0,HR-IXPWINDi_r2_v1.2.,2013-07-10 04:42:00,
2013-07-10 00:47:00,66.6,64.1,30.07,NE,40,2.0,6.0,92,0.00,,,0.00,0,HR-IXPWINDi_r2_v1.2.,2013-07-10 04:47:00,
2013-07-10 00:52:00,66.5,64.0,30.07,NE,55,4.0,6.0,92,0.00,,,0.00,0,HR-IXPWINDi_r2_v1.2.,2013-07-10 04:52:00,
2013-07-10 00:58:00,66.5,64.0,30.07,ENE,74,4.0,7.0,92,0.00,,,0.00,0,HR-IXPWINDi_r2_v1.2.,2013-07-10 04:58:00,
2013-07-10 01:03:00,66.5,64.0,30.07,ENE,57,7.0,7.0,92,0.00,,,0.00,0,HR-IXPWINDi_r2_v1.2.,2013-07-10 05:03:00,
2013-07-10 01:08:00,66.5,64.0,30.07,ENE,77,4.0,7.0,92,0.00,,,0.00,0,HR-IXPWINDi_r2_v1.2.,2013-07-10 05:08:00,
2013-07-10 01:13:00,66.5,64.0,30.07,East,84,5.0,7.0,92,0.00,,,0.00,0,HR-IXPWINDi_r2_v1.2.,2013-07-10 05:13:00,
2013-07-10 01:19:00,66.5,64.3,30.07,NE,45,2.0,7.0,93,0.00,,,0.00,0,HR-IXPWINDi_r2_v1.2.,2013-07-10 05:19:00,
2013-07-10 01:24:00,66.5,64.3,30.07,ENE,74,2.0,7.0,93,0.00,,,0.00,0,HR-IXPWINDi_r2_v1.2.,2013-07-10 05:24:00,
2013-07-10 01:29:00,66.4,63.9,30.07,ENE,71,4.0,7.0,92,0.00,,,0.00,0,HR-IXPWINDi_r2_v1.2.,2013-07-10 05:29:00,
2013-07-10 01:34:00,66.4,64.2,30.06,ENE,59,5.0,7.0,93,0.00,,,0.00,0,HR-IXPWINDi_r2_v1.2.,2013-07-10 05:34:00,
2013-07-10 01:39:00,66.4,64.2,30.06,NE,44,4.0,8.0,93,0.00,,,0.00,0,HR-IXPWINDi_r2_v1.2.,2013-07-10 05:39:00,
2013-07-10 01:44:00,66.3,64.1,30.06,ENE,60,5.0,8.0,93,0.00,,,0.00,0,HR-IXPWINDi_r2_v1.2.,2013-07-10 05:44:00,
2013-07-10 01:50:00,66.2,64.0,30.06,NE,51,6.0,8.0,93,0.00,,,0.00,0,HR-IXPWINDi_r2_v1.2.,2013-07-10 05:50:00,
2013-07-10 01:55:00,66.3,64.1,30.06,NE,44,1.0,9.0,93,0.00,,,0.00,0,HR-IXPWINDi_r2_v1.2.,2013-07-10 05:55:00,
2013-07-10 02:00:00,66.2,64.0,30.06,ENE,63,3.0,9.0,93,0.00,,,0.00,0,HR-IXPWINDi_r2_v1.2.,2013-07-10 06:00:00,
2013-07-10 02:05:00,66.2,64.0,30.05,ENE,57,3.0,7.0,93,0.00,,,0.00,0,HR-IXPWINDi_r2_v1.2.,2013-07-10 06:05:00,
2013-07-10 02:10:00,66.2,64.0,30.05,ENE,73,4.0,9.0,93,0.00,,,0.00,0,HR-IXPWINDi_r2_v1.2.,2013-07-10 06:10:00,
2013-07-10 02:15:00,66.2,64.0,30.05,ENE,78,4.0,9.0,93,0.00,,,0.00,0,HR-IXPWINDi_r2_v1.2.,2013-07-10 06:15:00,
2013-07-10 02:20:00,66.2,64.0,30.04,ENE,78,7.0,9.0,93,0.00,,,0.00,0,HR-IXPWINDi_r2_v1.2.,2013-07-10 06:20:00,
2013-07-10 02:26:00,66.2,64.0,30.04,NE,48,8.0,9.0,93,0.00,,,0.00,0,HR-IXPWINDi_r2_v1.2.,2013-07-10 06:26:00,
2013-07-10 02:31:00,66.3,64.1,30.04,NE,38,4.0,8.0,93,0.00,,,0.00,0,HR-IXPWINDi_r2_v1.2.,2013-07-10 06:31:00,
2013-07-10 02:36:00,66.2,64.4,30.04,ENE,77,2.0,8.0,94,0.00,,,0.00,0,HR-IXPWINDi_r2_v1.2.,2013-07-10 06:36:00,
2013-07-10 02:41:00,66.2,64.4,30.04,ENE,62,3.0,8.0,94,0.00,,,0.00,0,HR-IXPWINDi_r2_v1.2.,2013-07-10 06:41:00,
2013-07-10 02:46:00,66.2,64.4,30.04,ENE,57,2.0,7.0,94,0.00,,,0.00,0,HR-IXPWINDi_r2_v1.2.,2013-07-10 06:46:00,
2013-07-10 02:51:00,66.2,64.4,30.04,NNE,12,4.0,7.0,94,0.00,,,0.00,0,HR-IXPWINDi_r2_v1.2.,2013-07-10 06:51:00,
2013-07-10 02:56:00,66.2,64.4,30.03,NE,42,0.0,7.0,94,0.00,,,0.00,0,HR-IXPWINDi_r2_v1.2.,2013-07-10 06:56:00,
2013-07-10 03:02:00,66.2,64.4,30.03,ENE,74,3.0,7.0,94,0.00,,,0.00,0,HR-IXPWINDi_r2_v1.2.,2013-07-10 07:02:00,
2013-07-10 03:07:00,66.2,64.4,30.03,NE,46,5.0,7.0,94,0.00,,,0.00,0,HR-IXPWINDi_r2_v1.2.,2013-07-10 07:07:00,
2013-07-10 03:12:00,66.2,64.4,30.03,NNE,22,3.0,7.0,94,0.00,,,0.00,0,HR-IXPWINDi_r2_v1.2.,2013-07-10 07:12:00,
2013-07-10 03:17:00,66.2,64.4,30.03,NNE,27,5.0,7.0,94,0.00,,,0.00,0,HR-IXPWINDi_r2_v1.2.,2013-07-10 07:17:00,
2013-07-10 03:22:00,66.2,64.4,30.03,NNE,27,2.0,7.0,94,0.00,,,0.00,0,HR-IXPWINDi_r2_v1.2.,2013-07-10 07:22:00,
2013-07-10 03:28:00,66.2,64.4,30.03,NE,38,6.0,7.0,94,0.00,,,0.00,0,HR-IXPWINDi_r2_v1.2.,2013-07-10 07:28:00,
2013-07-10 03:33:00,66.2,64.4,30.03,NNE,33,2.0,7.0,94,0.00,,,0.00,0,HR-IXPWINDi_r2_v1.2.,2013-07-10 07:33:00,
2013-07-10 03:38:00,66.1,64.3,30.03,NE,43,5.0,7.0,94,0.00,,,0.00,0,HR-IXPWINDi_r2_v1.2.,2013-07-10 07:38:00,
2013-07-10 03:43:00,66.1,64.3,30.03,ENE,61,3.0,8.0,94,0.00,,,0.00,0,HR-IXPWINDi_r2_v1.2.,2013-07-10 07:43:00,
2013-07-10 03:48:00,66.2,64.4,30.02,NE,49,6.0,9.0,94,0.00,,,0.00,0,HR-IXPWINDi_r2_v1.2.,2013-07-10 07:48:00,
2013-07-10 03:53:00,66.1,64.6,30.03,ENE,59,4.0,9.0,95,0.00,,,0.00,0,HR-IXPWINDi_r2_v1.2.,2013-07-10 07:53:00,
2013-07-10 03:58:00,66.1,64.6,30.03,NE,44,4.0,9.0,95,0.00,,,0.00,0,HR-IXPWINDi_r2_v1.2.,2013-07-10 07:58:00,
2013-07-10 04:04:00,66.2,64.7,30.03,ENE,74,5.0,9.0,95,0.00,,,0.00,0,HR-IXPWINDi_r2_v1.2.,2013-07-10 08:04:00,
2013-07-10 04:09:00,66.2,64.7,30.02,NE,55,2.0,9.0,95,0.00,,,0.00,0,HR-IXPWINDi_r2_v1.2.,2013-07-10 08:09:00,
2013-07-10 04:14:00,66.2,64.7,30.03,NNE,26,4.0,8.0,95,0.00,,,0.00,0,HR-IXPWINDi_r2_v1.2.,2013-07-10 08:14:00,
2013-07-10 04:19:00,66.3,64.8,30.03,ENE,75,3.0,8.0,95,0.00,,,0.00,0,HR-IXPWINDi_r2_v1.2.,2013-07-10 08:19:00,
2013-07-10 04:24:00,66.2,64.7,30.02,ENE,73,5.0,9.0,95,0.00,,,0.00,0,HR-IXPWINDi_r2_v1.2.,2013-07-10 08:24:00,
2013-07-10 04:30:00,66.3,64.8,30.02,ENE,71,4.0,9.0,95,0.00,,,0.00,0,HR-IXPWINDi_r2_v1.2.,2013-07-10 08:30:00,
2013-07-10 04:35:00,66.3,64.8,30.02,ENE,68,3.0,8.0,95,0.00,,,0.00,0,HR-IXPWINDi_r2_v1.2.,2013-07-10 08:35:00,
2013-07-10 04:40:00,66.3,64.8,30.02,NE,46,4.0,8.0,95,0.00,,,0.00,0,HR-IXPWINDi_r2_v1.2.,2013-07-10 08:40:00,
2013-07-10 04:45:00,66.3,64.8,30.03,ENE,78,3.0,8.0,95,0.00,,,0.00,0,HR-IXPWINDi_r2_v1.2.,2013-07-10 08:45:00,
2013-07-10 04:50:00,66.3,64.8,30.02,ENE,67,3.0,7.0,95,0.00,,,0.00,0,HR-IXPWINDi_r2_v1.2.,2013-07-10 08:50:00,
2013-07-10 04:56:00,66.4,64.9,30.02,NE,54,4.0,8.0,95,0.00,,,0.00,0,HR-IXPWINDi_r2_v1.2.,2013-07-10 08:56:00,
2013-07-10 05:01:00,66.4,64.9,30.02,ENE,73,9.0,10.0,95,0.00,,,0.00,0,HR-IXPWINDi_r2_v1.2.,2013-07-10 09:01:00,
2013-07-10 05:06:00,66.4,64.9,30.02,ENE,77,3.0,10.0,95,0.00,,,0.00,0,HR-IXPWINDi_r2_v1.2.,2013-07-10 09:06:00,
2013-07-10 05:11:00,66.4,64.9,30.02,ENE,57,5.0,9.0,95,0.00,,,0.00,0,HR-IXPWINDi_r2_v1.2.,2013-07-10 09:11:00,
2013-07-10 05:16:00,66.3,64.8,30.02,NE,42,3.0,9.0,95,0.00,,,0.00,0,HR-IXPWINDi_r2_v1.2.,2013-07-10 09:16:00,
2013-07-10 05:21:00,66.5,65.0,30.01,NE,40,4.0,9.0,95,0.00,,,0.00,0,HR-IXPWINDi_r2_v1.2.,2013-07-10 09:21:00,
2013-07-10 05:26:00,66.5,65.0,30.01,NE,49,4.0,9.0,95,0.00,,,0.00,0,HR-IXPWINDi_r2_v1.2.,2013-07-10 09:26:00,
2013-07-10 05:31:00,66.5,65.0,30.01,NE,46,8.0,10.0,95,0.00,,,0.00,0,HR-IXPWINDi_r2_v1.2.,2013-07-10 09:31:00,
2013-07-10 05:37:00,66.5,65.0,30.01,ENE,63,3.0,10.0,95,0.00,,,0.00,0,HR-IXPWINDi_r2_v1.2.,2013-07-10 09:37:00,
2013-07-10 05:42:00,66.5,65.0,30.01,NE,38,3.0,8.0,95,0.00,,,0.00,5,HR-IXPWINDi_r2_v1.2.,2013-07-10 09:42:00,
2013-07-10 05:47:00,66.6,65.1,30.01,ENE,61,2.0,8.0,95,0.00,,,0.00,5,HR-IXPWINDi_r2_v1.2.,2013-07-10 09:47:00,
2013-07-10 05:52:00,66.6,65.1,30.01,ENE,68,3.0,8.0,95,0.00,,,0.00,7,HR-IXPWINDi_r2_v1.2.,2013-07-10 09:52:00,
2013-07-10 05:58:00,66.6,65.1,30.01,NE,38,3.0,8.0,95,0.00,,,0.00,7,HR-IXPWINDi_r2_v1.2.,2013-07-10 09:58:00,
2013-07-10 06:03:00,66.6,65.1,30.01,NNE,33,5.0,8.0,95,0.00,,,0.00,5,HR-IXPWINDi_r2_v1.2.,2013-07-10 10:03:00,
2013-07-10 06:08:00,66.6,65.1,30.01,NE,35,7.0,9.0,95,0.00,,,0.00,5,HR-IXPWINDi_r2_v1.2.,2013-07-10 10:08:00,
2013-07-10 06:13:00,66.6,65.1,30.02,NE,55,5.0,9.0,95,0.00,,,0.00,9,HR-IXPWINDi_r2_v1.2.,2013-07-10 10:13:00,
2013-07-10 06:18:00,66.5,65.0,30.02,ENE,57,2.0,9.0,95,0.00,,,0.00,9,HR-IXPWINDi_r2_v1.2.,2013-07-10 10:18:00,
2013-07-10 06:24:00,66.6,65.1,30.02,NE,35,4.0,8.0,95,0.00,,,0.00,11,HR-IXPWINDi_r2_v1.2.,2013-07-10 10:24:00,
2013-07-10 06:29:00,66.5,65.0,30.02,ENE,76,7.0,8.0,95,0.00,,,0.00,11,HR-IXPWINDi_r2_v1.2.,2013-07-10 10:29:00,
2013-07-10 06:34:00,66.6,65.1,30.02,ENE,67,3.0,9.0,95,0.00,,,0.00,18,HR-IXPWINDi_r2_v1.2.,2013-07-10 10:34:00,
2013-07-10 06:39:00,66.7,65.2,30.02,ENE,59,4.0,9.0,95,0.00,,,0.00,28,HR-IXPWINDi_r2_v1.2.,2013-07-10 10:39:00,
2013-07-10 06:45:00,66.7,65.2,30.02,NE,55,6.0,10.0,95,0.00,,,0.00,26,HR-IXPWINDi_r2_v1.2.,2013-07-10 10:45:00,
2013-07-10 06:50:00,66.7,65.2,30.02,NE,51,5.0,10.0,95,0.00,,,0.00,23,HR-IXPWINDi_r2_v1.2.,2013-07-10 10:50:00,
2013-07-10 06:55:00,66.7,65.5,30.02,NNE,23,7.0,9.0,96,0.00,,,0.00,25,HR-IXPWINDi_r2_v1.2.,2013-07-10 10:55:00,
2013-07-10 07:00:00,66.7,65.5,30.02,NE,53,5.0,8.0,96,0.00,,,0.00,26,HR-IXPWINDi_r2_v1.2.,2013-07-10 11:00:00,
2013-07-10 07:06:00,66.7,65.5,30.02,NE,52,4.0,9.0,96,0.00,,,0.00,25,HR-IXPWINDi_r2_v1.2.,2013-07-10 11:06:00,
2013-07-10 07:11:00,66.7,65.5,30.01,NE,55,5.0,10.0,96,0.00,,,0.00,14,HR-IXPWINDi_r2_v1.2.,2013-07-10 11:11:00,
2013-07-10 07:16:00,66.7,65.5,30.01,ENE,69,7.0,10.0,96,0.00,,,0.00,39,HR-IXPWINDi_r2_v1.2.,2013-07-10 11:16:00,
2013-07-10 07:21:00,66.7,65.5,30.01,ENE,72,3.0,10.0,96,0.00,,,0.00,37,HR-IXPWINDi_r2_v1.2.,2013-07-10 11:21:00,
2013-07-10 07:26:00,66.7,65.5,30.01,NE,49,2.0,10.0,96,0.00,,,0.00,37,HR-IXPWINDi_r2_v1.2.,2013-07-10 11:26:00,
2013-07-10 07:31:00,66.8,65.6,30.01,ENE,76,4.0,10.0,96,0.00,,,0.00,42,HR-IXPWINDi_r2_v1.2.,2013-07-10 11:31:00,
2013-07-10 07:37:00,66.8,65.6,30.01,NE,53,5.0,10.0,96,0.00,,,0.00,44,HR-IXPWINDi_r2_v1.2.,2013-07-10 11:37:00,
2013-07-10 07:42:00,66.8,65.6,30.01,ENE,78,5.0,11.0,96,0.00,,,0.00,44,HR-IXPWINDi_r2_v1.2.,2013-07-10 11:42:00,
2013-07-10 07:47:00,66.8,65.6,30.01,ENE,73,7.0,11.0,96,0.00,,,0.00,46,HR-IXPWINDi_r2_v1.2.,2013-07-10 11:47:00,
2013-07-10 07:52:00,66.9,65.7,30.01,ENE,69,7.0,9.0,96,0.00,,,0.00,54,HR-IXPWINDi_r2_v1.2.,2013-07-10 11:52:00,
2013-07-10 07:57:00,67.0,65.8,30.01,NE,40,4.0,10.0,96,0.00,,,0.00,62,HR-IXPWINDi_r2_v1.2.,2013-07-10 11:57:00,
2013-07-10 08:02:00,67.0,65.8,30.01,ENE,63,5.0,10.0,96,0.00,,,0.00,51,HR-IXPWINDi_r2_v1.2.,2013-07-10 12:02:00,
2013-07-10 08:07:00,67.0,65.8,30.01,ENE,69,7.0,10.0,96,0.00,,,0.00,67,HR-IXPWINDi_r2_v1.2.,2013-07-10 12:07:00,
2013-07-10 08:12:00,67.1,65.9,30.01,ENE,69,7.0,10.0,96,0.00,,,0.00,102,HR-IXPWINDi_r2_v1.2.,2013-07-10 12:12:00,
2013-07-10 08:17:00,67.2,66.0,30.00,ENE,61,5.0,9.0,96,0.00,,,0.00,42,HR-IXPWINDi_r2_v1.2.,2013-07-10 12:17:00,
2013-07-10 08:23:00,67.2,66.0,30.00,ENE,68,5.0,10.0,96,0.00,,,0.00,69,HR-IXPWINDi_r2_v1.2.,2013-07-10 12:23:00,
2013-07-10 08:28:00,67.2,66.0,30.00,ENE,73,4.0,10.0,96,0.00,,,0.00,88,HR-IXPWINDi_r2_v1.2.,2013-07-10 12:28:00,
2013-07-10 08:33:00,67.4,66.2,30.00,NE,51,3.0,9.0,96,0.00,,,0.00,42,HR-IXPWINDi_r2_v1.2.,2013-07-10 12:33:00,
2013-07-10 08:38:00,67.5,66.3,30.00,NE,40,3.0,7.0,96,0.00,,,0.00,58,HR-IXPWINDi_r2_v1.2.,2013-07-10 12:38:00,
2013-07-10 08:43:00,67.6,66.4,30.00,NE,56,5.0,8.0,96,0.00,,,0.00,42,HR-IXPWINDi_r2_v1.2.,2013-07-10 12:43:00,
2013-07-10 08:48:00,67.6,66.4,29.99,NE,53,4.0,8.0,96,0.00,,,0.00,118,HR-IXPWINDi_r2_v1.2.,2013-07-10 12:48:00,
2013-07-10 08:53:00,67.7,66.8,29.99,ENE,63,7.0,8.0,97,0.00,,,0.00,83,HR-IXPWINDi_r2_v1.2.,2013-07-10 12:53:00,
2013-07-10 08:58:00,67.8,66.9,29.99,ENE,78,5.0,9.0,97,0.00,,,0.00,77,HR-IXPWINDi_r2_v1.2.,2013-07-10 12:58:00,
2013-07-10 09:03:00,67.9,67.0,29.99,NE,52,2.0,9.0,97,0.00,,,0.00,79,HR-IXPWINDi_r2_v1.2.,2013-07-10 13:03:00,
2013-07-10 09:09:00,68.0,67.1,29.99,NE,49,2.0,8.0,97,0.00,,,0.00,79,HR-IXPWINDi_r2_v1.2.,2013-07-10 13:09:00,
2013-07-10 09:14:00,68.1,67.2,29.99,ENE,66,2.0,7.0,97,0.00,,,0.00,72,HR-IXPWINDi_r2_v1.2.,2013-07-10 13:14:00,
2013-07-10 09:19:00,68.0,67.1,29.99,ENE,72,5.0,7.0,97,0.00,,,0.00,86,HR-IXPWINDi_r2_v1.2.,2013-07-10 13:19:00,
2013-07-10 09:24:00,68.1,67.2,29.98,ENE,61,5.0,7.0,97,0.00,,,0.00,86,HR-IXPWINDi_r2_v1.2.,2013-07-10 13:24:00,
2013-07-10 09:30:00,68.2,67.2,29.98,NE,47,3.0,7.0,97,0.00,,,0.00,120,HR-IXPWINDi_r2_v1.2.,2013-07-10 13:30:00,
2013-07-10 09:35:00,68.3,67.3,29.98,East,80,6.0,8.0,97,0.00,,,0.00,118,HR-IXPWINDi_r2_v1.2.,2013-07-10 13:35:00,
2013-07-10 09:40:00,68.3,67.3,29.98,ESE,105,3.0,8.0,97,0.00,,,0.00,123,HR-IXPWINDi_r2_v1.2.,2013-07-10 13:40:00,
2013-07-10 09:45:00,68.6,67.6,29.98,ESE,105,0.0,7.0,97,0.00,,,0.00,171,HR-IXPWINDi_r2_v1.2.,2013-07-10 13:45:00,
2013-07-10 09:50:00,68.5,67.5,29.98,ENE,75,4.0,7.0,97,0.00,,,0.00,118,HR-IXPWINDi_r2_v1.2.,2013-07-10 13:50:00,
2013-07-10 09:56:00,68.5,67.5,29.97,East,87,2.0,7.0,97,0.00,,,0.00,139,HR-IXPWINDi_r2_v1.2.,2013-07-10 13:56:00,
2013-07-10 10:01:00,68.6,67.6,29.97,SE,125,1.0,7.0,97,0.00,,,0.00,195,HR-IXPWINDi_r2_v1.2.,2013-07-10 14:01:00,
2013-07-10 10:06:00,68.8,67.8,29.97,ENE,76,4.0,7.0,97,0.00,,,0.00,130,HR-IXPWINDi_r2_v1.2.,2013-07-10 14:06:00,
2013-07-10 10:11:00,68.8,67.8,29.97,East,80,3.0,5.0,97,0.00,,,0.00,139,HR-IXPWINDi_r2_v1.2.,2013-07-10 14:11:00,
2013-07-10 10:16:00,69.1,68.1,29.97,ENE,67,3.0,5.0,97,0.00,,,0.00,135,HR-IXPWINDi_r2_v1.2.,2013-07-10 14:16:00,
2013-07-10 10:22:00,69.0,68.0,29.97,ESE,123,0.0,6.0,97,0.00,,,0.00,153,HR-IXPWINDi_r2_v1.2.,2013-07-10 14:22:00,
2013-07-10 10:27:00,69.2,68.2,29.97,East,101,3.0,6.0,97,0.00,,,0.00,141,HR-IXPWINDi_r2_v1.2.,2013-07-10 14:27:00,
2013-07-10 10:32:00,69.3,68.3,29.96,ESE,117,0.0,6.0,97,0.00,,,0.00,109,HR-IXPWINDi_r2_v1.2.,2013-07-10 14:32:00,
2013-07-10 10:37:00,69.4,68.4,29.96,NE,35,1.0,6.0,97,0.00,,,0.00,95,HR-IXPWINDi_r2_v1.2.,2013-07-10 14:37:00,
2013-07-10 10:42:00,69.4,68.4,29.96,East,100,1.0,7.0,97,0.00,,,0.00,144,HR-IXPWINDi_r2_v1.2.,2013-07-10 14:42:00,
2013-07-10 10:48:00,69.4,68.4,29.96,ENE,75,3.0,7.0,97,0.00,,,0.00,107,HR-IXPWINDi_r2_v1.2.,2013-07-10 14:48:00,
2013-07-10 10:53:00,69.5,68.5,29.96,ENE,58,0.0,6.0,97,0.00,,,0.00,192,HR-IXPWINDi_r2_v1.2.,2013-07-10 14:53:00,
2013-07-10 10:58:00,69.4,68.4,29.96,East,84,3.0,10.0,97,0.00,,,0.00,227,HR-IXPWINDi_r2_v1.2.,2013-07-10 14:58:00,
2013-07-10 11:03:00,69.4,68.4,29.96,ESE,113,5.0,13.0,97,0.00,,,0.00,265,HR-IXPWINDi_r2_v1.2.,2013-07-10 15:03:00,
2013-07-10 11:08:00,69.4,68.4,29.96,ESE,110,9.0,13.0,97,0.00,,,0.00,350,HR-IXPWINDi_r2_v1.2.,2013-07-10 15:08:00,
2013-07-10 11:13:00,69.5,68.2,29.96,ESE,119,2.0,11.0,96,0.00,,,0.00,264,HR-IXPWINDi_r2_v1.2.,2013-07-10 15:13:00,
2013-07-10 11:18:00,69.7,68.7,29.95,ESE,109,5.0,10.0,97,0.00,,,0.00,380,HR-IXPWINDi_r2_v1.2.,2013-07-10 15:18:00,
2013-07-10 11:23:00,70.3,69.3,29.95,ESE,119,4.0,9.0,97,0.00,,,0.00,555,HR-IXPWINDi_r2_v1.2.,2013-07-10 15:23:00,
2013-07-10 11:28:00,71.3,70.0,29.95,East,96,5.0,8.0,96,0.00,,,0.00,752,HR-IXPWINDi_r2_v1.2.,2013-07-10 15:28:00,
2013-07-10 11:34:00,71.6,70.0,29.95,East,100,6.0,9.0,95,0.00,,,0.00,499,HR-IXPWINDi_r2_v1.2.,2013-07-10 15:34:00,
2013-07-10 11:39:00,72.5,70.6,29.95,East,90,0.0,9.0,94,0.00,,,0.00,439,HR-IXPWINDi_r2_v1.2.,2013-07-10 15:39:00,
2013-07-10 11:44:00,72.9,70.4,29.95,East,80,3.0,8.0,92,0.00,,,0.00,387,HR-IXPWINDi_r2_v1.2.,2013-07-10 15:44:00,
2013-07-10 11:49:00,72.5,69.3,29.95,East,96,2.0,7.0,90,0.00,,,0.00,422,HR-IXPWINDi_r2_v1.2.,2013-07-10 15:49:00,
2013-07-10 11:54:00,72.3,69.5,29.95,East,82,0.0,9.0,91,0.00,,,0.00,434,HR-IXPWINDi_r2_v1.2.,2013-07-10 15:54:00,
2013-07-10 11:59:00,73.0,70.2,29.95,ENE,63,1.0,9.0,91,0.00,,,0.00,613,HR-IXPWINDi_r2_v1.2.,2013-07-10 15:59:00,
2013-07-10 12:04:00,73.8,70.3,29.95,East,81,3.0,8.0,89,0.00,,,0.00,756,HR-IXPWINDi_r2_v1.2.,2013-07-10 16:04:00,
2013-07-10 12:10:00,74.1,70.3,29.94,ENE,69,5.0,8.0,88,0.00,,,0.00,826,HR-IXPWINDi_r2_v1.2.,2013-07-10 16:10:00,
2013-07-10 12:15:00,73.9,70.1,29.94,ENE,72,4.0,8.0,88,0.00,,,0.00,791,HR-IXPWINDi_r2_v1.2.,2013-07-10 16:15:00,
2013-07-10 12:20:00,73.6,69.8,29.94,ESE,118,7.0,8.0,88,0.00,,,0.00,800,HR-IXPWINDi_r2_v1.2.,2013-07-10 16:20:00,
2013-07-10 12:25:00,73.6,70.4,29.94,East,100,2.0,9.0,90,0.00,,,0.00,680,HR-IXPWINDi_r2_v1.2.,2013-07-10 16:25:00,
2013-07-10 12:30:00,75.4,71.5,29.94,ESE,113,1.0,9.0,88,0.00,,,0.00,770,HR-IXPWINDi_r2_v1.2.,2013-07-10 16:30:00,
2013-07-10 12:35:00,75.8,71.3,29.93,ESE,117,3.0,8.0,86,0.00,,,0.00,842,HR-IXPWINDi_r2_v1.2.,2013-07-10 16:35:00,
2013-07-10 12:40:00,76.5,71.6,29.93,ENE,74,1.0,8.0,85,0.00,,,0.00,599,HR-IXPWINDi_r2_v1.2.,2013-07-10 16:40:00,
2013-07-10 12:45:00,76.4,71.1,29.93,East,92,6.0,7.0,84,0.00,,,0.00,494,HR-IXPWINDi_r2_v1.2.,2013-07-10 16:45:00,
2013-07-10 12:50:00,75.2,70.7,29.93,NE,46,2.0,10.0,86,0.00,,,0.00,687,HR-IXPWINDi_r2_v1.2.,2013-07-10 16:50:00,
2013-07-10 12:55:00,75.6,71.1,29.93,ESE,104,3.0,10.0,86,0.00,,,0.00,464,HR-IXPWINDi_r2_v1.2.,2013-07-10 16:55:00,
2013-07-10 13:01:00,75.8,71.6,29.93,SSE,150,4.0,9.0,87,0.00,,,0.00,628,HR-IXPWINDi_r2_v1.2.,2013-07-10 17:01:00,
2013-07-10 13:06:00,76.0,71.8,29.92,ENE,62,2.0,9.0,87,0.00,,,0.00,814,HR-IXPWINDi_r2_v1.2.,2013-07-10 17:06:00,
2013-07-10 13:11:00,76.5,71.6,29.91,ENE,77,3.0,9.0,85,0.00,,,0.00,823,HR-IXPWINDi_r2_v1.2.,2013-07-10 17:11:00,
2013-07-10 13:16:00,77.6,72.3,29.91,SE,136,8.0,8.0,84,0.00,,,0.00,882,HR-IXPWINDi_r2_v1.2.,2013-07-10 17:16:00,
2013-07-10 13:21:00,77.1,72.2,29.91,ENE,71,5.0,10.0,85,0.00,,,0.00,886,HR-IXPWINDi_r2_v1.2.,2013-07-10 17:21:00,
2013-07-10 13:27:00,77.1,72.5,29.90,SE,126,4.0,10.0,86,0.00,,,0.00,891,HR-IXPWINDi_r2_v1.2.,2013-07-10 17:27:00,
2013-07-10 13:32:00,77.1,72.2,29.90,SE,138,1.0,10.0,85,0.00,,,0.00,708,HR-IXPWINDi_r2_v1.2.,2013-07-10 17:32:00,
2013-07-10 13:37:00,77.9,72.3,29.89,ENE,59,3.0,9.0,83,0.00,,,0.00,601,HR-IXPWINDi_r2_v1.2.,2013-07-10 17:37:00,
2013-07-10 13:42:00,76.8,71.5,29.89,ENE,78,2.0,10.0,84,0.00,,,0.00,675,HR-IXPWINDi_r2_v1.2.,2013-07-10 17:42:00,
2013-07-10 13:47:00,75.8,70.9,29.89,SE,136,4.0,11.0,85,0.00,,,0.00,810,HR-IXPWINDi_r2_v1.2.,2013-07-10 17:47:00,
2013-07-10 13:53:00,76.0,71.5,29.89,ESE,107,10.0,11.0,86,0.00,,,0.00,765,HR-IXPWINDi_r2_v1.2.,2013-07-10 17:53:00,
2013-07-10 13:58:00,76.3,71.7,29.89,SE,126,1.0,11.0,86,0.00,,,0.00,775,HR-IXPWINDi_r2_v1.2.,2013-07-10 17:58:00,
2013-07-10 14:03:00,76.7,72.1,29.88,SE,133,7.0,13.0,86,0.00,,,0.00,803,HR-IXPWINDi_r2_v1.2.,2013-07-10 18:03:00,
2013-07-10 14:08:00,76.6,71.7,29.88,ESE,112,3.0,13.0,85,0.00,,,0.00,828,HR-IXPWINDi_r2_v1.2.,2013-07-10 18:08:00,
2013-07-10 14:13:00,77.0,72.1,29.88,ESE,103,5.0,14.0,85,0.00,,,0.00,867,HR-IXPWINDi_r2_v1.2.,2013-07-10 18:13:00,
2013-07-10 14:18:00,76.9,72.0,29.87,East,80,9.0,14.0,85,0.00,,,0.00,884,HR-IXPWINDi_r2_v1.2.,2013-07-10 18:18:00,
2013-07-10 14:23:00,76.8,71.9,29.87,SSE,147,1.0,14.0,85,0.00,,,0.00,807,HR-IXPWINDi_r2_v1.2.,2013-07-10 18:23:00,
2013-07-10 14:28:00,76.7,71.8,29.87,SE,133,8.0,11.0,85,0.00,,,0.00,385,HR-IXPWINDi_r2_v1.2.,2013-07-10 18:28:00,
2013-07-10 14:33:00,76.2,71.6,29.87,SE,144,7.0,11.0,86,0.00,,,0.00,431,HR-IXPWINDi_r2_v1.2.,2013-07-10 18:33:00,
2013-07-10 14:38:00,76.2,71.6,29.87,SE,127,6.0,15.0,86,0.00,,,0.00,833,HR-IXPWINDi_r2_v1.2.,2013-07-10 18:38:00,
2013-07-10 14:44:00,76.3,71.7,29.86,SE,132,10.0,17.0,86,0.00,,,0.00,770,HR-IXPWINDi_r2_v1.2.,2013-07-10 18:44:00,
2013-07-10 14:49:00,76.5,71.6,29.86,ESE,117,13.0,17.0,85,0.00,,,0.00,828,HR-IXPWINDi_r2_v1.2.,2013-07-10 18:49:00,
2013-07-10 14:54:00,76.6,71.3,29.86,South,187,10.0,16.0,84,0.00,,,0.00,724,HR-IXPWINDi_r2_v1.2.,2013-07-10 18:54:00,
2013-07-10 14:59:00,76.4,71.5,29.86,SE,126,13.0,15.0,85,0.00,,,0.00,656,HR-IXPWINDi_r2_v1.2.,2013-07-10 18:59:00,
2013-07-10 15:04:00,76.4,71.5,29.85,SE,135,11.0,16.0,85,0.00,,,0.00,770,HR-IXPWINDi_r2_v1.2.,2013-07-10 19:04:00,
2013-07-10 15:09:00,77.2,71.6,29.85,SSW,200,7.0,16.0,83,0.00,,,0.00,768,HR-IXPWINDi_r2_v1.2.,2013-07-10 19:09:00,
2013-07-10 15:14:00,78.0,71.3,29.85,SSE,147,5.0,15.0,80,0.00,,,0.00,726,HR-IXPWINDi_r2_v1.2.,2013-07-10 19:14:00,
2013-07-10 15:20:00,78.2,71.5,29.85,South,175,15.0,17.0,80,0.00,,,0.00,733,HR-IXPWINDi_r2_v1.2.,2013-07-10 19:20:00,
2013-07-10 15:25:00,79.2,71.3,29.84,South,186,14.0,20.0,77,0.00,,,0.00,664,HR-IXPWINDi_r2_v1.2.,2013-07-10 19:25:00,
2013-07-10 15:30:00,79.3,71.4,29.84,South,186,13.0,20.0,77,0.00,,,0.00,677,HR-IXPWINDi_r2_v1.2.,2013-07-10 19:30:00,
2013-07-10 15:35:00,80.0,71.7,29.84,South,185,17.0,22.0,76,0.00,,,0.00,686,HR-IXPWINDi_r2_v1.2.,2013-07-10 19:35:00,
2013-07-10 15:40:00,80.5,71.8,29.84,SSW,192,16.0,22.0,75,0.00,,,0.00,668,HR-IXPWINDi_r2_v1.2.,2013-07-10 19:40:00,
2013-07-10 15:45:00,80.5,71.8,29.84,South,186,14.0,20.0,75,0.00,,,0.00,666,HR-IXPWINDi_r2_v1.2.,2013-07-10 19:45:00,
2013-07-10 15:51:00,80.1,71.8,29.83,SSW,194,7.0,20.0,76,0.00,,,0.00,664,HR-IXPWINDi_r2_v1.2.,2013-07-10 19:51:00,
2013-07-10 15:56:00,79.8,71.5,29.83,South,182,15.0,19.0,76,0.00,,,0.00,216,HR-IXPWINDi_r2_v1.2.,2013-07-10 19:56:00,
2013-07-10 16:01:00,79.6,71.7,29.83,South,186,18.0,21.0,77,0.00,,,0.00,283,HR-IXPWINDi_r2_v1.2.,2013-07-10 20:01:00,
2013-07-10 16:06:00,79.4,71.5,29.83,South,180,18.0,21.0,77,0.00,,,0.00,515,HR-IXPWINDi_r2_v1.2.,2013-07-10 20:06:00,
2013-07-10 16:11:00,79.6,71.7,29.83,SSW,198,16.0,21.0,77,0.00,,,0.00,438,HR-IXPWINDi_r2_v1.2.,2013-07-10 20:11:00,
2013-07-10 16:17:00,79.4,71.5,29.83,South,184,18.0,21.0,77,0.00,,,0.00,380,HR-IXPWINDi_r2_v1.2.,2013-07-10 20:17:00,
2013-07-10 16:22:00,79.3,71.4,29.83,South,189,15.0,20.0,77,0.00,,,0.00,181,HR-IXPWINDi_r2_v1.2.,2013-07-10 20:22:00,
2013-07-10 16:27:00,78.8,71.3,29.82,South,188,16.0,19.0,78,0.00,,,0.00,258,HR-IXPWINDi_r2_v1.2.,2013-07-10 20:27:00,
2013-07-10 16:32:00,79.3,71.8,29.82,South,181,16.0,21.0,78,0.00,,,0.00,369,HR-IXPWINDi_r2_v1.2.,2013-07-10 20:32:00,
2013-07-10 16:38:00,79.0,71.5,29.82,South,182,16.0,21.0,78,0.00,,,0.00,271,HR-IXPWINDi_r2_v1.2.,2013-07-10 20:38:00,
2013-07-10 16:43:00,79.2,72.1,29.81,South,190,18.0,20.0,79,0.00,,,0.00,454,HR-IXPWINDi_r2_v1.2.,2013-07-10 20:43:00,
2013-07-10 16:48:00,79.3,71.8,29.81,South,187,17.0,20.0,78,0.00,,,0.00,473,HR-IXPWINDi_r2_v1.2.,2013-07-10 20:48:00,
2013-07-10 16:53:00,79.3,72.2,29.81,South,186,18.0,22.0,79,0.00,,,0.00,221,HR-IXPWINDi_r2_v1.2.,2013-07-10 20:53:00,
2013-07-10 16:59:00,79.5,72.4,29.81,South,182,17.0,22.0,79,0.00,,,0.00,218,HR-IXPWINDi_r2_v1.2.,2013-07-10 20:59:00,
2013-07-10 17:04:00,78.8,72.1,29.81,South,188,16.0,22.0,80,0.00,,,0.00,144,HR-IXPWINDi_r2_v1.2.,2013-07-10 21:04:00,
2013-07-10 17:09:00,78.2,71.8,29.81,South,190,18.0,20.0,81,0.00,,,0.00,148,HR-IXPWINDi_r2_v1.2.,2013-07-10 21:09:00,
2013-07-10 17:14:00,78.2,72.2,29.80,South,185,18.0,22.0,82,0.00,,,0.00,179,HR-IXPWINDi_r2_v1.2.,2013-07-10 21:14:00,
2013-07-10 17:19:00,78.2,72.2,29.80,SSW,196,20.0,23.0,82,0.00,,,0.00,192,HR-IXPWINDi_r2_v1.2.,2013-07-10 21:19:00,
2013-07-10 17:24:00,78.0,72.0,29.80,South,184,20.0,23.0,82,0.00,,,0.00,162,HR-IXPWINDi_r2_v1.2.,2013-07-10 21:24:00,
2013-07-10 17:30:00,77.6,72.0,29.80,South,183,21.0,23.0,83,0.00,,,0.00,144,HR-IXPWINDi_r2_v1.2.,2013-07-10 21:30:00,
2013-07-10 17:35:00,77.5,71.9,29.80,South,188,18.0,23.0,83,0.00,,,0.00,139,HR-IXPWINDi_r2_v1.2.,2013-07-10 21:35:00,
2013-07-10 17:40:00,77.6,72.3,29.80,South,188,20.0,27.0,84,0.00,,,0.00,121,HR-IXPWINDi_r2_v1.2.,2013-07-10 21:40:00,
2013-07-10 17:45:00,77.6,72.0,29.81,South,185,23.0,27.0,83,0.00,,,0.00,98,HR-IXPWINDi_r2_v1.2.,2013-07-10 21:45:00,
2013-07-10 17:51:00,77.6,72.0,29.80,SSE,167,21.0,26.0,83,0.00,,,0.00,91,HR-IXPWINDi_r2_v1.2.,2013-07-10 21:51:00,
2013-07-10 17:56:00,77.4,71.8,29.81,South,173,15.0,23.0,83,0.00,,,0.00,83,HR-IXPWINDi_r2_v1.2.,2013-07-10 21:56:00,
2013-07-10 18:01:00,77.1,71.8,29.80,South,183,17.0,23.0,84,0.00,,,0.00,76,HR-IXPWINDi_r2_v1.2.,2013-07-10 22:01:00,
2013-07-10 18:06:00,77.1,72.2,29.80,SSW,195,15.0,23.0,85,0.00,,,0.00,79,HR-IXPWINDi_r2_v1.2.,2013-07-10 22:06:00,
2013-07-10 18:11:00,77.0,72.1,29.80,South,188,21.0,23.0,85,0.00,,,0.00,76,HR-IXPWINDi_r2_v1.2.,2013-07-10 22:11:00,
2013-07-10 18:17:00,76.9,72.0,29.79,South,180,14.0,23.0,85,0.00,,,0.00,104,HR-IXPWINDi_r2_v1.2.,2013-07-10 22:17:00,
2013-07-10 18:22:00,76.8,72.2,29.79,SSW,204,17.0,22.0,86,0.00,,,0.00,139,HR-IXPWINDi_r2_v1.2.,2013-07-10 22:22:00,
2013-07-10 18:27:00,76.7,71.8,29.79,South,191,14.0,22.0,85,0.00,,,0.00,98,HR-IXPWINDi_r2_v1.2.,2013-07-10 22:27:00,
2013-07-10 18:32:00,76.2,72.0,29.79,SSW,198,13.0,20.0,87,0.00,,,0.00,37,HR-IXPWINDi_r2_v1.2.,2013-07-10 22:32:00,
2013-07-10 18:37:00,76.3,72.1,29.79,South,187,16.0,22.0,87,0.00,,,0.00,21,HR-IXPWINDi_r2_v1.2.,2013-07-10 22:37:00,
2013-07-10 18:43:00,76.2,72.0,29.79,SSW,196,18.0,22.0,87,0.00,,,0.00,28,HR-IXPWINDi_r2_v1.2.,2013-07-10 22:43:00,
2013-07-10 18:48:00,76.0,71.8,29.79,South,183,14.0,21.0,87,0.00,,,0.00,49,HR-IXPWINDi_r2_v1.2.,2013-07-10 22:48:00,
2013-07-10 18:53:00,76.1,71.9,29.79,SSW,199,17.0,20.0,87,0.00,,,0.00,62,HR-IXPWINDi_r2_v1.2.,2013-07-10 22:53:00,
2013-07-10 18:58:00,75.9,71.7,29.79,SSW,192,18.0,19.0,87,0.00,,,0.00,88,HR-IXPWINDi_r2_v1.2.,2013-07-10 22:58:00,
2013-07-10 19:04:00,75.8,71.9,29.79,South,175,17.0,19.0,88,0.00,,,0.00,86,HR-IXPWINDi_r2_v1.2.,2013-07-10 23:04:00,
2013-07-10 19:09:00,75.8,71.9,29.79,South,184,14.0,19.0,88,0.00,,,0.00,79,HR-IXPWINDi_r2_v1.2.,2013-07-10 23:09:00,
2013-07-10 19:14:00,75.6,71.7,29.79,SSW,194,13.0,18.0,88,0.00,,,0.00,70,HR-IXPWINDi_r2_v1.2.,2013-07-10 23:14:00,
2013-07-10 19:19:00,75.4,71.5,29.79,South,188,13.0,15.0,88,0.00,,,0.00,69,HR-IXPWINDi_r2_v1.2.,2013-07-10 23:19:00,
2013-07-10 19:24:00,75.3,71.8,29.80,SSW,195,13.0,15.0,89,0.00,,,0.00,49,HR-IXPWINDi_r2_v1.2.,2013-07-10 23:24:00,
2013-07-10 19:29:00,75.3,71.8,29.79,South,184,13.0,16.0,89,0.00,,,0.00,39,HR-IXPWINDi_r2_v1.2.,2013-07-10 23:29:00,
2013-07-10 19:35:00,75.3,71.8,29.80,South,186,15.0,16.0,89,0.00,,,0.00,32,HR-IXPWINDi_r2_v1.2.,2013-07-10 23:35:00,
2013-07-10 19:40:00,75.3,71.8,29.80,SSW,197,11.0,16.0,89,0.00,,,0.00,28,HR-IXPWINDi_r2_v1.2.,2013-07-10 23:40:00,
2013-07-10 19:45:00,75.1,71.9,29.80,SSW,194,13.0,16.0,90,0.00,,,0.00,21,HR-IXPWINDi_r2_v1.2.,2013-07-10 23:45:00,
2013-07-10 19:50:00,75.0,71.8,29.80,South,190,11.0,15.0,90,0.00,,,0.00,12,HR-IXPWINDi_r2_v1.2.,2013-07-10 23:50:00,
2013-07-10 19:55:00,74.7,71.5,29.80,SSW,193,9.0,15.0,90,0.00,,,0.00,7,HR-IXPWINDi_r2_v1.2.,2013-07-10 23:55:00,
2013-07-10 20:00:00,74.5,71.3,29.80,South,188,13.0,14.0,90,0.00,,,0.00,5,HR-IXPWINDi_r2_v1.2.,2013-07-11 00:00:00,
2013-07-10 20:05:00,74.4,71.5,29.80,South,189,14.0,15.0,91,0.00,,,0.00,5,HR-IXPWINDi_r2_v1.2.,2013-07-11 00:05:00,
2013-07-10 20:10:00,74.4,71.5,29.80,SSW,198,13.0,16.0,91,0.00,,,0.00,0,HR-IXPWINDi_r2_v1.2.,2013-07-11 00:10:00,
2013-07-10 20:15:00,74.4,71.5,29.80,SSW,192,10.0,16.0,91,0.00,,,0.00,0,HR-IXPWINDi_r2_v1.2.,2013-07-11 00:15:00,
2013-07-10 20:21:00,74.2,71.3,29.81,South,188,10.0,14.0,91,0.00,,,0.00,0,HR-IXPWINDi_r2_v1.2.,2013-07-11 00:21:00,
2013-07-10 20:26:00,74.2,71.7,29.81,South,185,12.0,14.0,92,0.00,,,0.00,0,HR-IXPWINDi_r2_v1.2.,2013-07-11 00:26:00,
2013-07-10 20:31:00,74.2,71.7,29.81,SSW,195,12.0,14.0,92,0.00,,,0.00,0,HR-IXPWINDi_r2_v1.2.,2013-07-11 00:31:00,
2013-07-10 20:36:00,74.3,71.8,29.81,SSW,192,12.0,15.0,92,0.00,,,0.00,0,HR-IXPWINDi_r2_v1.2.,2013-07-11 00:36:00,
2013-07-10 20:42:00,74.3,71.8,29.82,SSW,199,12.0,15.0,92,0.00,,,0.00,0,HR-IXPWINDi_r2_v1.2.,2013-07-11 00:42:00,
2013-07-10 20:47:00,74.4,71.9,29.81,SSW,193,13.0,15.0,92,0.00,,,0.00,0,HR-IXPWINDi_r2_v1.2.,2013-07-11 00:47:00,
2013-07-10 20:52:00,74.5,72.0,29.80,South,184,12.0,15.0,92,0.00,,,0.00,0,HR-IXPWINDi_r2_v1.2.,2013-07-11 00:52:00,
2013-07-10 20:57:00,74.2,71.7,29.81,South,187,11.0,15.0,92,0.00,,,0.00,0,HR-IXPWINDi_r2_v1.2.,2013-07-11 00:57:00,
2013-07-10 21:02:00,74.2,71.7,29.81,South,189,10.0,13.0,92,0.00,,,0.00,0,HR-IXPWINDi_r2_v1.2.,2013-07-11 01:02:00,
2013-07-10 21:07:00,74.0,71.5,29.81,South,189,10.0,13.0,92,0.00,,,0.00,0,HR-IXPWINDi_r2_v1.2.,2013-07-11 01:07:00,
2013-07-10 21:13:00,74.0,71.5,29.81,South,190,11.0,13.0,92,0.00,,,0.00,0,HR-IXPWINDi_r2_v1.2.,2013-07-11 01:13:00,
2013-07-10 21:18:00,74.0,71.5,29.81,South,184,11.0,14.0,92,0.00,,,0.00,0,HR-IXPWINDi_r2_v1.2.,2013-07-11 01:18:00,
2013-07-10 21:23:00,74.0,71.5,29.81,South,187,10.0,14.0,92,0.00,,,0.00,0,HR-IXPWINDi_r2_v1.2.,2013-07-11 01:23:00,
2013-07-10 21:28:00,73.8,71.3,29.81,SSW,196,9.0,13.0,92,0.00,,,0.00,0,HR-IXPWINDi_r2_v1.2.,2013-07-11 01:28:00,
2013-07-10 21:33:00,73.5,71.0,29.81,South,183,12.0,14.0,92,0.00,,,0.00,0,HR-IXPWINDi_r2_v1.2.,2013-07-11 01:33:00,
2013-07-10 21:39:00,73.6,71.4,29.81,SSW,194,11.0,15.0,93,0.00,,,0.00,0,HR-IXPWINDi_r2_v1.2.,2013-07-11 01:39:00,
2013-07-10 21:44:00,73.4,70.9,29.81,South,182,11.0,15.0,92,0.00,,,0.00,0,HR-IXPWINDi_r2_v1.2.,2013-07-11 01:44:00,
2013-07-10 21:49:00,73.3,71.1,29.81,South,185,11.0,14.0,93,0.00,,,0.00,0,HR-IXPWINDi_r2_v1.2.,2013-07-11 01:49:00,
2013-07-10 21:54:00,73.3,71.1,29.81,South,186,12.0,14.0,93,0.00,,,0.00,0,HR-IXPWINDi_r2_v1.2.,2013-07-11 01:54:00,
2013-07-10 22:00:00,73.2,71.0,29.81,SSW,196,11.0,14.0,93,0.00,,,0.00,0,HR-IXPWINDi_r2_v1.2.,2013-07-11 02:00:00,
2013-07-10 22:05:00,73.3,71.1,29.81,South,190,14.0,15.0,93,0.00,,,0.00,0,HR-IXPWINDi_r2_v1.2.,2013-07-11 02:05:00,
2013-07-10 22:10:00,73.3,71.1,29.81,South,182,12.0,15.0,93,0.00,,,0.00,0,HR-IXPWINDi_r2_v1.2.,2013-07-11 02:10:00,
2013-07-10 22:15:00,73.3,71.1,29.81,South,187,15.0,15.0,93,0.00,,,0.00,0,HR-IXPWINDi_r2_v1.2.,2013-07-11 02:15:00,
2013-07-10 22:20:00,73.2,71.0,29.81,South,184,12.0,16.0,93,0.00,,,0.00,0,HR-IXPWINDi_r2_v1.2.,2013-07-11 02:20:00,
2013-07-10 22:25:00,73.2,71.0,29.81,South,190,11.0,16.0,93,0.00,,,0.00,0,HR-IXPWINDi_r2_v1.2.,2013-07-11 02:25:00,
2013-07-10 22:30:00,73.1,70.9,29.81,South,190,11.0,15.0,93,0.00,,,0.00,0,HR-IXPWINDi_r2_v1.2.,2013-07-11 02:30:00,
2013-07-10 22:36:00,73.1,71.2,29.80,South,186,12.0,14.0,94,0.00,,,0.00,0,HR-IXPWINDi_r2_v1.2.,2013-07-11 02:36:00,
2013-07-10 22:41:00,73.2,71.3,29.80,SSW,198,12.0,14.0,94,0.00,,,0.00,0,HR-IXPWINDi_r2_v1.2.,2013-07-11 02:41:00,
2013-07-10 22:46:00,73.1,71.2,29.80,South,182,13.0,14.0,94,0.00,,,0.00,0,HR-IXPWINDi_r2_v1.2.,2013-07-11 02:46:00,
2013-07-10 22:51:00,73.1,71.2,29.81,SSW,196,13.0,15.0,94,0.00,,,0.00,0,HR-IXPWINDi_r2_v1.2.,2013-07-11 02:51:00,
2013-07-10 22:56:00,73.2,71.3,29.81,SSW,196,14.0,15.0,94,0.00,,,0.00,0,HR-IXPWINDi_r2_v1.2.,2013-07-11 02:56:00,
2013-07-10 23:01:00,73.3,71.4,29.81,SSW,200,12.0,15.0,94,0.00,,,0.00,0,HR-IXPWINDi_r2_v1.2.,2013-07-11 03:01:00,
2013-07-10 23:06:00,73.3,71.4,29.81,SSW,193,12.0,15.0,94,0.00,,,0.00,0,HR-IXPWINDi_r2_v1.2.,2013-07-11 03:06:00,
2013-07-10 23:12:00,73.3,71.4,29.81,South,190,13.0,15.0,94,0.00,,,0.00,0,HR-IXPWINDi_r2_v1.2.,2013-07-11 03:12:00,
2013-07-10 23:17:00,73.3,71.4,29.80,SSW,194,11.0,15.0,94,0.00,,,0.00,0,HR-IXPWINDi_r2_v1.2.,2013-07-11 03:17:00,
2013-07-10 23:22:00,73.3,71.4,29.80,South,185,13.0,15.0,94,0.00,,,0.00,0,HR-IXPWINDi_r2_v1.2.,2013-07-11 03:22:00,
2013-07-10 23:27:00,73.3,71.4,29.80,South,190,12.0,14.0,94,0.00,,,0.00,0,HR-IXPWINDi_r2_v1.2.,2013-07-11 03:27:00,
2013-07-10 23:32:00,73.2,71.3,29.80,South,186,9.0,14.0,94,0.00,,,0.00,0,HR-IXPWINDi_r2_v1.2.,2013-07-11 03:32:00,
2013-07-10 23:37:00,73.1,71.2,29.80,South,190,10.0,12.0,94,0.00,,,0.00,0,HR-IXPWINDi_r2_v1.2.,2013-07-11 03:37:00,
2013-07-10 23:42:00,73.0,71.1,29.80,South,186,9.0,11.0,94,0.00,,,0.00,0,HR-IXPWINDi_r2_v1.2.,2013-07-11 03:42:00,
2013-07-10 23:48:00,72.9,71.0,29.79,South,184,10.0,11.0,94,0.00,,,0.00,0,HR-IXPWINDi_r2_v1.2.,2013-07-11 03:48:00,
2013-07-10 23:53:00,72.9,71.0,29.79,South,188,10.0,12.0,94,0.00,,,0.00,0,HR-IXPWINDi_r2_v1.2.,2013-07-11 03:53:00,
2013-07-10 23:58:00,73.0,71.1,29.79,SSW,196,9.0,12.0,94,0.00,,,0.00,0,HR-IXPWINDi_r2_v1.2.,2013-07-11 03:58:00,